Flight Track Log - Related Links

Times and Time Zones

All times are in EST time to prevent confusion due to time zone crossing. See the PDT4314 flight status page for this flight to view local times or setup timezone preferences in your user account.

Time Position Orientation Groundspeed Altitude Reporting Facility
EST Latitude Longitude Course Direction KTS MPH feet Rate Location/Type
Tue 06:58:00 PM 41.9498 -75.8951 180° South  Level Estimated
Tue 06:59:00 PM 41.8972 -75.9052 188° South  Level FlightAware Approximate
Tue 07:00:00 PM 41.8445 -75.9153 188° South  Level FlightAware Approximate
Tue 07:01:00 PM 41.7918 -75.9254 188° South  Level FlightAware Approximate
Tue 07:02:00 PM 41.7405 -75.9065 154° Southeast  Level Estimated
Tue 07:03:00 PM 41.6891 -75.8877 160° South  Level Estimated
Tue 07:04:00 PM 41.6378 -75.8689 159° South  Level Estimated
Tue 07:05:00 PM 41.5880 -75.8439 159° South  Level FlightAware Approximate
Tue 07:06:00 PM 41.5381 -75.8190 159° South  Level FlightAware Approximate
Tue 07:07:00 PM 41.4867 -75.8007 153° Southeast  Level Estimated
Tue 07:08:00 PM 41.4353 -75.7825 161° South  Level Estimated
Tue 07:09:00 PM 41.3866 -75.7538 156° South  Level FlightAware Approximate
Tue 07:10:00 PM 41.3379 -75.7252 156° South  Level FlightAware Approximate
Tue 07:11:00 PM 41.2892 -75.6966 156° South  Level FlightAware Approximate
Tue 07:12:00 PM 41.2376 -75.6796 162° South  Level Estimated
Tue 07:13:00 PM 41.1875 -75.6557 160° South  Level FlightAware Approximate
Tue 07:14:00 PM 41.1374 -75.6319 160° South  Level FlightAware Approximate
Tue 07:15:00 PM 41.0873 -75.6081 160° South  Level FlightAware Approximate
Tue 07:16:00 PM 41.0372 -75.5843 160° South  Level FlightAware Approximate
Tue 07:17:00 PM 40.9853 -75.5687 159° South  Level Estimated
Tue 07:18:00 PM 40.9334 -75.5532 163° South  Level Estimated
Tue 07:19:00 PM 40.8833 -75.5293 160° South  Level FlightAware Approximate
Tue 07:19:56 PM 40.5667 -75.6167 193° South 264 304 5,100  Level Philadelphia TRACON
Tue 07:20:00 PM 40.8332 -75.5054 160° South  Level FlightAware Approximate
Tue 07:20:44 PM 40.5167 -75.6167 180° South 247 284 5,000  Level Philadelphia TRACON
Tue 07:21:00 PM 40.7832 -75.4816 160° South  Level FlightAware Approximate
Tue 07:21:39 PM 40.4667 -75.6000 166° South 238 274 5,000  Level Philadelphia TRACON
Tue 07:22:00 PM 40.7331 -75.4578 160° South  Level FlightAware Approximate
Tue 07:22:39 PM 40.4000 -75.5833 169° South 237 273 5,000  Level Philadelphia TRACON
Tue 07:23:00 PM 40.6809 -75.4445 190° South  Level Estimated
Tue 07:23:39 PM 40.3500 -75.5333 143° Southeast 239 275 5,000  Level Philadelphia TRACON
Tue 07:24:00 PM 40.6290 -75.4604 193° South  Level FlightAware Approximate
Tue 07:24:39 PM 40.3000 -75.4667 135° Southeast 240 276 5,000  Level Philadelphia TRACON
Tue 07:25:00 PM 40.5772 -75.4763 193° South  Level FlightAware Approximate
Tue 07:25:39 PM 40.2500 -75.4167 143° Southeast 239 275 4,800  Level Philadelphia TRACON
Tue 07:26:39 PM 40.2000 -75.3500 134° Southeast 251 289 4,200 -400 Descending Philadelphia TRACON
Tue 07:27:39 PM 40.1500 -75.3000 143° Southeast 248 285 4,000 -100 Descending Philadelphia TRACON
Tue 07:28:39 PM 40.0833 -75.2500 150° Southeast 240 276 4,000  Level Philadelphia TRACON
Tue 07:29:39 PM 40.0167 -75.2167 159° South 241 277 4,000  Level Philadelphia TRACON
Tue 07:30:45 PM 39.9667 -75.1833 153° Southeast 231 266 4,000  Level Philadelphia TRACON
Tue 07:31:39 PM 39.9000 -75.1500 159° South 218 251 4,000 -316 Level Philadelphia TRACON
Tue 07:32:39 PM 39.8500 -75.1167 153° Southeast 209 241 3,400 -800 Descending Philadelphia TRACON
Tue 07:33:39 PM 39.8000 -75.1167 180° South 198 228 2,400 -700 Descending Philadelphia TRACON
Tue 07:34:39 PM 39.7833 -75.1833 252° West 184 212 2,000 -600 Descending Philadelphia TRACON
Tue 07:35:39 PM 39.8167 -75.2000 339° North 135 155 1,200 -750 Descending Philadelphia TRACON
Tue 07:36:39 PM 39.8500 -75.2167 339° North 113 130 500 -700 Descending Philadelphia TRACON

Login

Don't have an account? Register now (free) for customized features, flight alerts, and more!